createdAt,value
2019-01-20T00:01:11.759Z,-6.30
2019-01-20T00:03:41.570Z,-6.20
2019-01-20T00:06:11.247Z,-6.20
2019-01-20T00:08:40.914Z,-6.20
2019-01-20T00:11:16.625Z,-6.10
2019-01-20T00:13:41.979Z,-6.10
2019-01-20T00:16:11.705Z,-6.10
2019-01-20T00:18:41.722Z,-6.10
2019-01-20T00:21:11.973Z,-6.00
2019-01-20T00:23:41.733Z,-6.10
2019-01-20T00:26:11.451Z,-6.10
2019-01-20T00:28:41.233Z,-6.20
2019-01-20T00:31:13.358Z,-6.20
2019-01-20T00:33:43.272Z,-6.20
2019-01-20T00:36:13.208Z,-6.30
2019-01-20T00:38:42.949Z,-6.30
2019-01-20T00:41:12.523Z,-6.40
2019-01-20T00:43:42.156Z,-6.40
2019-01-20T00:46:11.770Z,-6.30
2019-01-20T00:48:41.407Z,-6.30
2019-01-20T00:51:11.179Z,-6.30
2019-01-20T00:53:40.903Z,-6.30
2019-01-20T00:56:10.578Z,-6.30
2019-01-20T00:58:40.227Z,-6.40
2019-01-20T01:01:10.267Z,-6.40
2019-01-20T01:03:39.884Z,-6.40
2019-01-20T01:06:09.523Z,-6.40
2019-01-20T01:08:39.192Z,-6.40
2019-01-20T01:11:08.850Z,-6.60
2019-01-20T01:13:38.899Z,-6.60
2019-01-20T01:16:08.635Z,-6.60
2019-01-20T01:18:38.271Z,-6.60
2019-01-20T01:21:07.921Z,-6.70
2019-01-20T01:23:37.668Z,-6.70
2019-01-20T01:26:07.354Z,-6.60
2019-01-20T01:28:37.088Z,-6.60
2019-01-20T01:31:06.728Z,-6.60
2019-01-20T01:33:36.477Z,-6.60
2019-01-20T01:36:06.340Z,-6.60
2019-01-20T01:38:36.145Z,-6.50
2019-01-20T01:41:05.803Z,-6.60
2019-01-20T01:43:35.512Z,-6.60
2019-01-20T01:46:05.231Z,-6.70
2019-01-20T01:48:34.934Z,-6.70
2019-01-20T01:51:04.708Z,-6.80
2019-01-20T01:53:34.430Z,-6.80
2019-01-20T01:56:04.195Z,-6.80
2019-01-20T01:58:33.812Z,-6.80
2019-01-20T02:01:03.576Z,-6.70
2019-01-20T02:03:33.212Z,-6.70
2019-01-20T02:06:02.912Z,-6.70
2019-01-20T02:08:32.551Z,-6.80
2019-01-20T02:11:02.321Z,-6.80
2019-01-20T02:13:32.074Z,-6.80
2019-01-20T02:16:01.795Z,-6.80
2019-01-20T02:18:31.582Z,-6.80
2019-01-20T02:21:01.539Z,-6.80
2019-01-20T02:23:31.311Z,-6.80
2019-01-20T02:26:01.058Z,-6.80
2019-01-20T02:28:30.687Z,-6.80
2019-01-20T02:31:00.385Z,-6.80
2019-01-20T02:33:30.013Z,-6.80
2019-01-20T02:35:59.757Z,-6.80
2019-01-20T02:38:29.383Z,-6.80
2019-01-20T02:40:59.043Z,-6.80
2019-01-20T02:43:28.751Z,-6.90
2019-01-20T02:45:58.517Z,-6.90
2019-01-20T02:48:28.227Z,-6.90
2019-01-20T02:50:57.886Z,-6.90
2019-01-20T02:53:27.630Z,-6.90
2019-01-20T02:55:57.392Z,-6.90
2019-01-20T02:58:27.021Z,-6.90
2019-01-20T03:00:56.684Z,-6.90
2019-01-20T03:03:26.433Z,-7.00
2019-01-20T03:05:56.212Z,-7.00
2019-01-20T03:08:26.750Z,-7.10
2019-01-20T03:10:56.429Z,-7.10
2019-01-20T03:13:26.050Z,-7.10
2019-01-20T03:15:55.658Z,-7.20
2019-01-20T03:18:25.388Z,-7.20
2019-01-20T03:20:55.020Z,-7.10
2019-01-20T03:23:24.654Z,-7.10
2019-01-20T03:25:54.328Z,-7.10
2019-01-20T03:28:24.080Z,-7.00
2019-01-20T03:30:53.852Z,-7.00
2019-01-20T03:33:23.489Z,-7.00
2019-01-20T03:35:53.238Z,-7.00
2019-01-20T03:38:22.906Z,-7.10
2019-01-20T03:40:52.527Z,-7.10
2019-01-20T03:43:22.276Z,-7.10
2019-01-20T03:45:51.888Z,-7.10
2019-01-20T03:48:21.507Z,-7.20
2019-01-20T03:50:51.142Z,-7.20
2019-01-20T03:53:20.884Z,-7.20
2019-01-20T03:55:50.588Z,-7.30
2019-01-20T03:58:20.178Z,-7.30
2019-01-20T04:00:49.905Z,-7.30
2019-01-20T04:03:19.623Z,-7.30
2019-01-20T04:05:49.386Z,-7.30
2019-01-20T04:08:19.011Z,-7.30
2019-01-20T04:10:48.654Z,-7.30
2019-01-20T04:13:18.339Z,-7.40
2019-01-20T04:15:48.051Z,-7.40
2019-01-20T04:18:17.744Z,-7.30
2019-01-20T04:20:47.482Z,-7.40
2019-01-20T04:23:17.100Z,-7.70
2019-01-20T04:25:48.297Z,-7.70
2019-01-20T04:28:17.961Z,-7.70
2019-01-20T04:30:47.636Z,-7.60
2019-01-20T04:33:17.378Z,-7.60
2019-01-20T04:35:46.985Z,-7.50
2019-01-20T04:38:16.615Z,-7.50
2019-01-20T04:40:46.376Z,-7.50
2019-01-20T04:43:16.019Z,-7.50
2019-01-20T04:45:45.746Z,-7.50
2019-01-20T04:48:21.148Z,-7.40
2019-01-20T04:50:50.843Z,-7.40
2019-01-20T04:53:20.590Z,-7.40
2019-01-20T04:55:50.267Z,-7.40
2019-01-20T04:58:20.420Z,-7.50
2019-01-20T05:00:50.019Z,-7.50
2019-01-20T05:03:19.779Z,-7.40
2019-01-20T05:05:49.485Z,-7.40
2019-01-20T05:08:19.167Z,-7.40
2019-01-20T05:10:49.017Z,-7.50
2019-01-20T05:13:18.693Z,-7.40
2019-01-20T05:15:48.480Z,-7.50
2019-01-20T05:18:18.106Z,-7.50
2019-01-20T05:20:48.316Z,-7.50
2019-01-20T05:23:18.058Z,-7.50
2019-01-20T05:25:47.802Z,-7.50
2019-01-20T05:28:17.552Z,-7.40
2019-01-20T05:30:47.290Z,-7.40
2019-01-20T05:33:17.063Z,-7.40
2019-01-20T05:35:46.815Z,-7.50
2019-01-20T05:38:16.391Z,-7.40
2019-01-20T05:40:46.014Z,-7.50
2019-01-20T05:43:15.643Z,-7.50
2019-01-20T05:45:45.374Z,-7.30
2019-01-20T05:48:15.160Z,-7.30
2019-01-20T05:50:44.884Z,-7.40
2019-01-20T05:53:14.547Z,-7.30
2019-01-20T05:55:44.205Z,-7.20
2019-01-20T05:58:13.847Z,-7.20
2019-01-20T06:00:43.482Z,-7.20
2019-01-20T06:03:13.223Z,-7.20
2019-01-20T06:05:42.895Z,-7.10
2019-01-20T06:08:12.669Z,-7.20
2019-01-20T06:10:42.316Z,-7.10
2019-01-20T06:13:11.957Z,-7.20
2019-01-20T06:15:41.594Z,-7.20
2019-01-20T06:18:11.228Z,-7.20
2019-01-20T06:20:40.852Z,-7.20
2019-01-20T06:23:10.607Z,-7.30
2019-01-20T06:25:40.257Z,-7.30
2019-01-20T06:28:09.975Z,-7.40
2019-01-20T06:30:39.709Z,-7.40
2019-01-20T06:33:09.469Z,-7.60
2019-01-20T06:35:39.226Z,-7.50
2019-01-20T06:38:08.981Z,-7.50
2019-01-20T06:40:38.587Z,-7.60
2019-01-20T06:43:08.242Z,-7.60
2019-01-20T06:45:37.989Z,-7.50
2019-01-20T06:48:07.759Z,-7.40
2019-01-20T06:50:37.384Z,-7.50
2019-01-20T06:53:07.063Z,-7.60
2019-01-20T06:55:36.778Z,-7.60
2019-01-20T06:58:06.641Z,-7.60
2019-01-20T07:00:36.608Z,-7.50
2019-01-20T07:03:06.304Z,-7.40
2019-01-20T07:05:35.919Z,-7.40
2019-01-20T07:08:05.696Z,-7.40
2019-01-20T07:10:35.335Z,-7.30
2019-01-20T07:13:09.197Z,-7.30
2019-01-20T07:15:36.297Z,-7.30
2019-01-20T07:18:05.922Z,-7.20
2019-01-20T07:20:35.618Z,-7.10
2019-01-20T07:23:05.218Z,-7.20
2019-01-20T07:25:34.852Z,-7.20
2019-01-20T07:28:04.527Z,-7.10
2019-01-20T07:30:34.218Z,-7.00
2019-01-20T07:33:05.671Z,-7.00
2019-01-20T07:35:35.376Z,-7.00
2019-01-20T07:38:05.202Z,-7.10
2019-01-20T07:40:34.986Z,-7.00
2019-01-20T07:43:04.765Z,-7.00
2019-01-20T07:45:34.495Z,-6.90
2019-01-20T07:48:04.265Z,-6.90
2019-01-20T07:50:34.005Z,-6.80
2019-01-20T07:53:03.737Z,-6.80
2019-01-20T07:55:33.372Z,-6.70
2019-01-20T07:58:03.070Z,-6.50
2019-01-20T08:00:32.882Z,-6.50
2019-01-20T08:03:02.604Z,-6.40
2019-01-20T08:05:32.418Z,-6.20
2019-01-20T08:08:02.021Z,-6.10
2019-01-20T08:10:31.703Z,-6.10
2019-01-20T08:13:01.469Z,-6.00
2019-01-20T08:15:31.239Z,-5.90
2019-01-20T08:18:01.045Z,-5.80
2019-01-20T08:20:30.820Z,-5.60
2019-01-20T08:23:00.424Z,-5.30
2019-01-20T08:25:30.177Z,-5.10
2019-01-20T08:27:59.740Z,-5.00
2019-01-20T08:30:29.427Z,-4.70
2019-01-20T08:32:59.162Z,-4.50
2019-01-20T08:35:28.888Z,-4.30
2019-01-20T08:37:58.525Z,-4.40
2019-01-20T08:40:32.598Z,-4.60
2019-01-20T08:43:02.433Z,-4.90
2019-01-20T08:46:14.326Z,-4.60
2019-01-20T08:48:43.983Z,-4.60
2019-01-20T08:51:14.970Z,-4.30
2019-01-20T08:53:44.678Z,-4.10
2019-01-20T08:56:14.322Z,-3.90
2019-01-20T08:58:44.604Z,-3.90
2019-01-20T09:01:14.275Z,-3.80
2019-01-20T09:03:44.032Z,-3.80
2019-01-20T09:06:13.797Z,-3.70
2019-01-20T09:08:43.412Z,-3.80
2019-01-20T09:11:13.092Z,-3.90
2019-01-20T09:13:42.764Z,-3.90
2019-01-20T09:16:12.592Z,-3.90
2019-01-20T09:18:42.360Z,-4.30
2019-01-20T09:21:12.147Z,-4.30
2019-01-20T09:23:43.599Z,-4.20
2019-01-20T09:26:13.624Z,-4.40
2019-01-20T09:28:43.319Z,-4.20
2019-01-20T09:31:13.097Z,-4.10
2019-01-20T09:33:42.798Z,-4.20
2019-01-20T09:36:12.588Z,-4.30
2019-01-20T09:38:42.334Z,-4.50
2019-01-20T09:44:40.773Z,-4.20
2019-01-20T09:47:12.518Z,-4.20
2019-01-20T09:49:42.448Z,-4.00
2019-01-20T09:52:12.411Z,-3.80
2019-01-20T09:54:42.530Z,-3.40
2019-01-20T09:57:12.690Z,-3.20
2019-01-20T09:59:42.643Z,-3.00
2019-01-20T10:02:12.598Z,-2.50
2019-01-20T10:04:42.500Z,-2.20
2019-01-20T10:07:12.398Z,-2.00
2019-01-20T10:09:42.281Z,-1.70
2019-01-20T10:12:12.249Z,-1.60
2019-01-20T10:14:42.287Z,-1.50
2019-01-20T10:17:12.723Z,-1.50
2019-01-20T10:19:52.677Z,-1.90
2019-01-20T10:22:25.669Z,-1.50
2019-01-20T10:24:59.020Z,-1.50
2019-01-20T10:27:30.534Z,-1.40
2019-01-20T10:30:00.710Z,-1.00
2019-01-20T10:32:30.901Z,-1.00
2019-01-20T10:35:01.367Z,-0.90
2019-01-20T10:37:31.813Z,-1.00
2019-01-20T10:40:04.241Z,-0.80
2019-01-20T10:42:34.317Z,-0.70
2019-01-20T10:45:05.919Z,-0.40
2019-01-20T10:47:35.861Z,-0.40
2019-01-20T10:50:07.854Z,-0.40
2019-01-20T10:52:38.077Z,-0.30
2019-01-20T10:55:08.531Z,-0.20
2019-01-20T10:57:38.512Z,-0.60
2019-01-20T11:00:13.386Z,-1.10
2019-01-20T11:02:43.376Z,-0.80
2019-01-20T11:05:15.833Z,-0.60
2019-01-20T11:07:46.133Z,-0.60
2019-01-20T11:10:16.205Z,-1.10
2019-01-20T11:12:46.213Z,-1.30
2019-01-20T11:15:16.296Z,-1.00
2019-01-20T11:17:46.285Z,-1.10
2019-01-20T11:20:16.279Z,-1.50
2019-01-20T11:22:46.228Z,-0.90
2019-01-20T11:25:21.910Z,-0.50
2019-01-20T11:27:51.857Z,-0.30
2019-01-20T11:30:21.836Z,-0.90
2019-01-20T11:32:51.793Z,-0.60
2019-01-20T11:35:22.786Z,-0.10
2019-01-20T11:37:52.800Z,-0.10
2019-01-20T11:40:22.591Z,0.20
2019-01-20T11:42:52.415Z,-0.50
2019-01-20T11:45:24.471Z,-1.30
2019-01-20T11:47:54.250Z,-1.90
2019-01-20T11:50:24.206Z,-2.00
2019-01-20T11:52:54.064Z,-2.20
2019-01-20T11:55:24.266Z,-2.20
2019-01-20T11:57:54.120Z,-2.50
2019-01-20T12:00:32.804Z,-2.60
2019-01-20T12:03:02.717Z,-2.70
2019-01-20T12:05:34.306Z,-2.90
2019-01-20T12:08:04.334Z,-3.10
2019-01-20T12:10:34.252Z,-2.90
2019-01-20T12:13:05.831Z,-2.70
2019-01-20T12:15:36.306Z,-2.50
2019-01-20T12:18:06.362Z,-1.80
2019-01-20T12:20:36.201Z,-2.30
2019-01-20T12:23:06.136Z,-2.20
2019-01-20T12:25:36.143Z,-2.20
2019-01-20T12:28:06.081Z,-1.80
2019-01-20T12:30:37.706Z,-1.80
2019-01-20T12:33:08.046Z,-1.70
2019-01-20T12:35:38.675Z,-1.40
2019-01-20T12:38:08.751Z,-1.30
2019-01-20T12:40:46.853Z,-0.70
2019-01-20T12:43:16.783Z,-0.10
2019-01-20T12:45:46.703Z,-0.20
2019-01-20T12:48:16.751Z,-0.50
2019-01-20T12:50:46.759Z,-0.70
2019-01-20T12:53:16.720Z,-0.20
2019-01-20T12:55:46.624Z,0.00
2019-01-20T12:58:16.502Z,-0.20
2019-01-20T13:00:46.480Z,0.30
2019-01-20T13:03:16.492Z,0.10
2019-01-20T13:05:46.423Z,0.30
2019-01-20T13:08:16.539Z,0.30
2019-01-20T13:10:46.404Z,-0.10
2019-01-20T13:13:16.357Z,-0.70
2019-01-20T13:15:46.226Z,-0.80
2019-01-20T13:18:16.222Z,-0.50
2019-01-20T13:20:45.931Z,-0.30
2019-01-20T13:23:15.824Z,-0.10
2019-01-20T13:25:45.766Z,-0.20
2019-01-20T13:28:15.759Z,-0.30
2019-01-20T13:30:46.038Z,-0.60
2019-01-20T13:33:15.961Z,-1.00
2019-01-20T13:35:46.412Z,-0.80
2019-01-20T13:38:18.172Z,-1.00
2019-01-20T13:40:51.174Z,-1.10
2019-01-20T13:43:21.037Z,-1.20
2019-01-20T13:45:50.896Z,-1.10
2019-01-20T13:48:20.793Z,-1.10
2019-01-20T13:50:50.592Z,-0.70
2019-01-20T13:53:20.450Z,-0.70
2019-01-20T13:55:50.343Z,-0.80
2019-01-20T13:58:20.344Z,-1.10
2019-01-20T14:00:50.209Z,-1.10
2019-01-20T14:03:20.145Z,-1.30
2019-01-20T14:05:50.171Z,-1.30
2019-01-20T14:08:20.113Z,-1.50
2019-01-20T14:10:50.119Z,-1.50
2019-01-20T14:13:20.120Z,-1.40
2019-01-20T14:15:50.042Z,-1.80
2019-01-20T14:18:19.940Z,-1.60
2019-01-20T14:20:49.809Z,-1.40
2019-01-20T14:23:20.141Z,-1.40
2019-01-20T14:25:50.303Z,-1.50
2019-01-20T14:28:20.535Z,-1.60
2019-01-20T14:30:50.450Z,-1.50
2019-01-20T14:33:20.407Z,-1.40
2019-01-20T14:35:50.238Z,-1.70
2019-01-20T14:38:20.085Z,-1.70
2019-01-20T14:40:50.069Z,-1.80
2019-01-20T14:43:19.874Z,-2.10
2019-01-20T14:45:49.612Z,-2.00
2019-01-20T14:48:19.723Z,-1.70
2019-01-20T14:50:49.721Z,-1.90
2019-01-20T14:53:19.672Z,-2.10
2019-01-20T14:55:51.313Z,-2.00
2019-01-20T14:58:23.626Z,-1.80
2019-01-20T15:00:52.867Z,-1.70
2019-01-20T15:03:22.699Z,-1.70
2019-01-20T15:05:52.998Z,-1.60
2019-01-20T15:08:23.005Z,-1.60
2019-01-20T15:10:53.016Z,-1.80
2019-01-20T15:13:24.311Z,-1.80
2019-01-20T15:16:13.132Z,-1.70
2019-01-20T15:18:42.909Z,-1.70
2019-01-20T15:21:12.744Z,-1.80
2019-01-20T15:23:45.695Z,-1.80
2019-01-20T15:26:18.208Z,-1.80
2019-01-20T15:28:54.193Z,-1.80
2019-01-20T15:31:24.518Z,-2.10
2019-01-20T15:33:56.140Z,-2.30
2019-01-20T15:36:29.329Z,-2.20
2019-01-20T15:39:02.348Z,-2.20
2019-01-20T15:41:33.468Z,-2.20
2019-01-20T15:44:04.717Z,-2.10
2019-01-20T15:46:37.804Z,-2.00
2019-01-20T15:49:09.338Z,-2.10
2019-01-20T15:51:39.659Z,-2.10
2019-01-20T15:54:09.816Z,-2.20
2019-01-20T15:56:42.247Z,-2.20
2019-01-20T15:59:14.791Z,-2.20
2019-01-20T16:01:45.016Z,-2.10
2019-01-20T16:04:17.450Z,-2.10
2019-01-20T16:06:47.692Z,-2.20
2019-01-20T16:09:19.333Z,-2.20
2019-01-20T16:11:49.462Z,-2.30
2019-01-20T16:14:19.397Z,-2.60
2019-01-20T16:16:50.793Z,-2.70
2019-01-20T16:19:20.879Z,-2.80
2019-01-20T16:21:53.666Z,-2.80
2019-01-20T16:24:23.753Z,-2.90
2019-01-20T16:26:53.895Z,-2.80
2019-01-20T16:29:23.822Z,-2.80
2019-01-20T16:31:53.938Z,-2.80
2019-01-20T16:34:26.324Z,-3.00
2019-01-20T16:36:56.537Z,-3.10
2019-01-20T16:39:26.705Z,-3.20
2019-01-20T16:41:57.792Z,-3.30
2019-01-20T16:44:27.714Z,-3.40
2019-01-20T16:46:57.549Z,-3.40
2019-01-20T16:49:27.259Z,-3.40
2019-01-20T16:51:56.931Z,-3.40
2019-01-20T16:54:26.722Z,-3.30
2019-01-20T16:56:56.524Z,-3.10
2019-01-20T16:59:26.572Z,-3.00
2019-01-20T17:01:56.329Z,-3.10
2019-01-20T17:04:26.105Z,-3.30
2019-01-20T17:06:55.898Z,-3.30
2019-01-20T17:09:25.678Z,-3.30
2019-01-20T17:11:55.454Z,-3.40
2019-01-20T17:14:25.254Z,-3.30
2019-01-20T17:16:54.919Z,-3.10
2019-01-20T17:19:24.719Z,-2.90
2019-01-20T17:21:54.538Z,-2.80
2019-01-20T17:24:24.254Z,-2.70
2019-01-20T17:26:54.138Z,-2.60
2019-01-20T17:29:24.392Z,-3.00
2019-01-20T17:31:54.151Z,-3.10
2019-01-20T17:34:23.995Z,-3.10
2019-01-20T17:36:54.331Z,-3.00
2019-01-20T17:39:24.389Z,-2.80
2019-01-20T17:41:54.185Z,-3.00
2019-01-20T17:44:24.251Z,-2.90
2019-01-20T17:46:54.258Z,-2.90
2019-01-20T17:49:24.243Z,-3.00
2019-01-20T17:51:54.372Z,-3.10
2019-01-20T17:54:24.281Z,-2.90
2019-01-20T17:56:54.119Z,-2.90
2019-01-20T17:59:23.923Z,-3.10
2019-01-20T18:01:53.892Z,-3.20
2019-01-20T18:04:23.889Z,-3.20
2019-01-20T18:06:53.680Z,-3.20
2019-01-20T18:09:23.866Z,-3.40
2019-01-20T18:11:53.636Z,-3.20
2019-01-20T18:14:23.490Z,-3.20
2019-01-20T18:16:53.275Z,-3.30
2019-01-20T18:19:23.056Z,-3.10
2019-01-20T18:21:53.181Z,-2.90
2019-01-20T18:24:22.917Z,-3.00
2019-01-20T18:26:52.847Z,-2.80
2019-01-20T18:29:22.692Z,-2.80
2019-01-20T18:31:52.628Z,-2.70
2019-01-20T18:34:22.451Z,-2.80
2019-01-20T18:36:52.368Z,-2.90
2019-01-20T18:39:22.189Z,-3.10
2019-01-20T18:41:52.098Z,-3.00
2019-01-20T18:44:22.019Z,-3.00
2019-01-20T18:46:51.868Z,-3.00
2019-01-20T18:49:21.589Z,-3.20
2019-01-20T18:51:51.540Z,-3.20
2019-01-20T18:54:21.442Z,-3.00
2019-01-20T18:56:51.381Z,-2.90
2019-01-20T18:59:21.314Z,-2.80
2019-01-20T19:01:51.173Z,-3.10
2019-01-20T19:04:21.144Z,-3.40
2019-01-20T19:06:51.095Z,-3.30
2019-01-20T19:09:21.925Z,-3.20
2019-01-20T19:11:52.996Z,-3.10
2019-01-20T19:14:23.027Z,-3.10
2019-01-20T19:16:52.851Z,-3.10
2019-01-20T19:19:22.811Z,-2.90
2019-01-20T19:21:52.824Z,-2.80
2019-01-20T19:24:22.600Z,-2.80
2019-01-20T19:26:52.535Z,-2.90
2019-01-20T19:29:23.145Z,-2.90
2019-01-20T19:31:53.029Z,-3.00
2019-01-20T19:34:23.573Z,-3.00
2019-01-20T19:36:53.474Z,-3.00
2019-01-20T19:39:23.265Z,-3.30
2019-01-20T19:41:53.460Z,-3.20
2019-01-20T19:44:23.677Z,-3.40
2019-01-20T19:46:53.420Z,-3.50
2019-01-20T19:49:23.571Z,-3.40
2019-01-20T19:51:53.300Z,-3.20
2019-01-20T19:54:23.153Z,-3.00
2019-01-20T19:56:55.361Z,-2.90
2019-01-20T19:59:25.159Z,-3.10
2019-01-20T20:01:54.915Z,-3.20
2019-01-20T20:04:25.035Z,-3.30
2019-01-20T20:06:55.917Z,-3.30
2019-01-20T20:09:26.033Z,-3.20
2019-01-20T20:11:55.937Z,-3.10
2019-01-20T20:14:25.815Z,-3.10
2019-01-20T20:16:55.838Z,-2.90
2019-01-20T20:19:25.664Z,-2.80
2019-01-20T20:21:55.420Z,-2.90
2019-01-20T20:24:25.802Z,-3.20
2019-01-20T20:26:55.802Z,-3.40
2019-01-20T20:29:25.649Z,-3.10
2019-01-20T20:31:55.919Z,-3.00
2019-01-20T20:34:25.657Z,-3.30
2019-01-20T20:36:55.509Z,-3.30
2019-01-20T20:39:25.389Z,-3.40
2019-01-20T20:41:55.165Z,-3.30
2019-01-20T20:44:25.729Z,-3.40
2019-01-20T20:46:55.518Z,-3.10
2019-01-20T20:49:25.700Z,-3.10
2019-01-20T20:51:55.884Z,-3.00
2019-01-20T20:54:25.603Z,-2.90
2019-01-20T20:56:55.434Z,-2.90
2019-01-20T20:59:25.364Z,-2.80
2019-01-20T21:01:55.562Z,-2.70
2019-01-20T21:04:25.457Z,-2.70
2019-01-20T21:06:55.667Z,-2.80
2019-01-20T21:09:25.395Z,-3.00
2019-01-20T21:11:55.236Z,-3.00
2019-01-20T21:14:26.929Z,-3.10
2019-01-20T21:16:56.953Z,-3.30
2019-01-20T21:19:27.009Z,-3.40
2019-01-20T21:21:56.751Z,-3.50
2019-01-20T21:24:28.084Z,-3.50
2019-01-20T21:26:58.235Z,-3.40
2019-01-20T21:29:29.245Z,-3.20
2019-01-20T21:32:03.492Z,-3.20
2019-01-20T21:34:40.441Z,-3.20
2019-01-20T21:37:13.529Z,-3.20
2019-01-20T21:39:43.547Z,-2.90
2019-01-20T21:42:15.444Z,-2.60
2019-01-20T21:44:46.736Z,-3.00
2019-01-20T21:47:16.820Z,-3.20
2019-01-20T21:50:08.353Z,-3.20
2019-01-20T21:55:28.775Z,-3.40
2019-01-20T21:58:25.297Z,-3.40
2019-01-20T22:01:04.282Z,-3.10
2019-01-20T22:03:37.243Z,-3.10
2019-01-20T22:06:15.708Z,-3.00
2019-01-20T22:09:16.568Z,-3.20
2019-01-20T22:11:58.086Z,-3.20
2019-01-20T22:18:03.325Z,-3.20
2019-01-20T22:21:18.111Z,-3.30
2019-01-20T22:26:53.853Z,-3.10
2019-01-20T22:29:58.874Z,-3.00
2019-01-20T22:32:38.612Z,-3.00
2019-01-20T22:36:03.512Z,-3.10
2019-01-20T22:38:12.451Z,-3.30
2019-01-20T22:40:42.451Z,-3.40
2019-01-20T22:43:12.434Z,-3.50
2019-01-20T22:45:42.486Z,-3.40
2019-01-20T22:48:12.561Z,-3.20
2019-01-20T22:50:42.489Z,-3.10
2019-01-20T22:53:12.476Z,-3.10
2019-01-20T22:55:42.839Z,-3.20
2019-01-20T22:58:15.154Z,-3.30
2019-01-20T23:00:59.593Z,-3.30
2019-01-20T23:03:29.940Z,-3.40
2019-01-20T23:05:59.906Z,-3.40
2019-01-20T23:08:31.562Z,-3.40
2019-01-20T23:11:23.017Z,-3.40
2019-01-20T23:13:55.331Z,-3.20
2019-01-20T23:16:28.593Z,-3.40
2019-01-20T23:19:00.241Z,-3.40
2019-01-20T23:21:30.454Z,-3.30
2019-01-20T23:24:00.566Z,-3.20
2019-01-20T23:26:30.699Z,-3.00
2019-01-20T23:29:00.735Z,-3.10
2019-01-20T23:31:30.705Z,-3.20
2019-01-20T23:34:00.714Z,-3.40
2019-01-20T23:36:30.731Z,-3.40
2019-01-20T23:39:00.800Z,-3.40
2019-01-20T23:41:31.242Z,-3.40
2019-01-20T23:44:01.530Z,-3.50
2019-01-20T23:46:31.551Z,-3.60
2019-01-20T23:49:01.599Z,-3.60
2019-01-20T23:51:31.691Z,-3.50
2019-01-20T23:54:03.039Z,-3.30
2019-01-20T23:56:34.411Z,-3.40
2019-01-20T23:59:04.566Z,-3.30
